Aviation Digital Data Service (ADDS)

Output produced by TAFs form (1739 UTC 21 April 2018)
found at http://aviationweather.gov/adds/tafs/
 
RJOH 211700Z 18003KT 9999 SCT/// 13/08 Q1020
TAF RJOH 211708Z 2118/2300 22006KT 9999 FEW030 
     BECMG 2202/2204 34005KT 
     BECMG 2212/2215 16004KT 
     TEMPO 2218/2300 2000 BR BCFG FEW000 SCT005 BKN009
       
RJOB 211200Z VRB01KT CAVOK 16/12 Q1020
TAF RJOB 211709Z 2118/2300 06004KT 9999 FEW030 
     BECMG 2123/2201 20005KT 
     BECMG 2206/2209 04004KT
       
RJOA 211300Z 30009KT CAVOK 17/04 Q1021
TAF RJOA 211711Z 2118/2300 20005KT 9999 FEW030
       
RJOT 211200Z 14008KT CAVOK 18/09 Q1021
TAF RJOT 211714Z 2118/2300 15010KT CAVOK 
     BECMG 2122/2200 06005KT
       
TAF RJOC 211706Z 2118/2300 17005KT 9999 FEW030 
     BECMG 2202/2204 36006KT 
     BECMG 2212/2215 16004KT 
     TEMPO 2218/2300 2000 BR BCFG FEW000 SCT005 BKN009
       
RJFR 211700Z 02002KT CAVOK 17/14 Q1020
TAF RJFR 211716Z 2118/2300 25005KT 8000 FEW020 
     BECMG 2119/2121 07003KT 
     TEMPO 2119/2200 0500 FG VV002 
     TEMPO 2200/2202 1500 BR
       
RJFO 211300Z VRB01KT CAVOK 16/14 Q1020
TAF RJFO 211705Z 2118/2300 13005KT 9999 FEW030
       
RJFU 211200Z 07003KT CAVOK 18/15 Q1020
TAF RJFU 211705Z 2118/2300 14008KT 9999 FEW040 
     BECMG 2204/2206 24006KT 
     BECMG 2209/2212 14008KT
       
RJFT 211200Z VRB02KT CAVOK 18/14 Q1021
TAF RJFT 211710Z 2118/2300 06005KT 8000 FEW015 
     BECMG 2120/2122 23005KT 
     BECMG 2209/2212 07004KT
       
RJFM 211200Z 20005KT 9999 FEW030 19/15 Q1021
TAF RJFM 211707Z 2118/2300 30005KT 9999 FEW020 
     BECMG 2123/2201 12010KT 
     BECMG 2209/2212 29005KT
       
RJFK 211200Z 11006KT CAVOK 17/12 Q1021 RMK A3016
TAF RJFK 211709Z 2118/2300 02005KT 9000 VA FEW015 
     BECMG 2122/2200 14007KT
       
TAF ROIG 211710Z 2118/2300 15005KT 8000 FEW005 BKN008 
     TEMPO 2118/2121 0800 FG VV001 
     TEMPO 2121/2200 FEW003 BKN005 
     BECMG 2200/2202 FEW008 BKN010 
     TEMPO 2212/2221 FEW003 BKN008